createdAt,value
2019-04-21T00:00:19.250Z,13.88
2019-04-21T00:01:18.387Z,13.88
2019-04-21T00:02:24.241Z,13.88
2019-04-21T00:03:25.838Z,13.88
2019-04-21T00:04:32.164Z,13.90
2019-04-21T00:05:38.490Z,13.88
2019-04-21T00:06:43.473Z,13.90
2019-04-21T00:07:37.748Z,13.88
2019-04-21T00:08:57.937Z,13.87
2019-04-21T00:09:41.074Z,13.81
2019-04-21T00:10:40.098Z,13.80
2019-04-21T00:11:40.852Z,13.75
2019-04-21T00:12:35.642Z,13.73
2019-04-21T00:13:36.739Z,13.72
2019-04-21T00:14:30.351Z,13.71
2019-04-21T00:15:28.935Z,13.66
2019-04-21T00:16:29.108Z,13.65
2019-04-21T00:17:21.773Z,13.62
2019-04-21T00:18:19.105Z,13.62
2019-04-21T00:19:21.555Z,13.63
2019-04-21T00:20:26.944Z,13.62
2019-04-21T00:21:26.499Z,13.62
2019-04-21T00:22:30.373Z,13.61
2019-04-21T00:23:37.489Z,13.62
2019-04-21T00:24:29.004Z,13.61
2019-04-21T00:25:32.160Z,13.61
2019-04-21T00:26:36.465Z,13.57
2019-04-21T00:27:33.344Z,13.55
2019-04-21T00:28:42.584Z,13.55
2019-04-21T00:30:39.893Z,13.53
2019-04-21T00:31:34.116Z,13.53
2019-04-21T00:32:33.383Z,13.50
2019-04-21T00:33:25.851Z,13.50
2019-04-21T00:34:19.432Z,13.46
2019-04-21T00:35:21.036Z,13.48
2019-04-21T00:36:25.267Z,13.48
2019-04-21T00:37:31.380Z,13.51
2019-04-21T00:38:56.446Z,13.51
2019-04-21T00:39:51.965Z,13.48
2019-04-21T00:40:46.103Z,13.46
2019-04-21T00:41:38.106Z,13.46
2019-04-21T00:42:34.319Z,13.46
2019-04-21T00:43:32.940Z,13.44
2019-04-21T00:44:29.399Z,13.41
2019-04-21T00:45:32.545Z,13.39
2019-04-21T00:46:35.110Z,13.38
2019-04-21T00:47:38.804Z,13.32
2019-04-21T00:48:45.908Z,13.31
2019-04-21T00:49:34.355Z,13.28
2019-04-21T00:50:53.231Z,13.31
2019-04-21T00:51:49.814Z,13.29
2019-04-21T00:52:52.573Z,13.31
2019-04-21T00:53:45.563Z,13.28
2019-04-21T00:54:51.982Z,13.27
2019-04-21T00:55:46.689Z,13.24
2019-04-21T00:56:46.694Z,13.22
2019-04-21T00:57:44.955Z,13.16
2019-04-21T00:58:39.606Z,13.16
2019-04-21T00:59:43.307Z,13.14
2019-04-21T01:00:38.563Z,13.12
2019-04-21T01:01:40.656Z,13.12
2019-04-21T01:02:48.513Z,13.10
2019-04-21T01:03:38.453Z,13.13
2019-04-21T01:04:42.866Z,13.14
2019-04-21T01:05:42.782Z,13.13
2019-04-21T01:06:43.468Z,13.13
2019-04-21T01:07:37.061Z,13.13
2019-04-21T01:08:39.984Z,13.13
2019-04-21T01:09:34.253Z,13.16
2019-04-21T01:10:33.575Z,13.14
2019-04-21T01:11:40.233Z,13.13
2019-04-21T01:12:37.387Z,13.10
2019-04-21T01:13:41.490Z,13.09
2019-04-21T01:14:45.611Z,13.01
2019-04-21T01:15:43.553Z,13.01
2019-04-21T01:16:43.879Z,12.99
2019-04-21T01:17:40.651Z,12.96
2019-04-21T01:18:38.064Z,12.94
2019-04-21T01:19:38.800Z,12.92
2019-04-21T01:20:18.221Z,12.91
2019-04-21T01:21:16.598Z,12.91
2019-04-21T01:22:16.587Z,12.91
2019-04-21T01:23:16.776Z,12.88
2019-04-21T01:24:21.923Z,12.81
2019-04-21T01:25:25.863Z,12.77
2019-04-21T01:26:31.098Z,12.74
2019-04-21T01:27:40.638Z,12.73
2019-04-21T01:28:37.646Z,12.74
2019-04-21T01:29:44.060Z,12.74
2019-04-21T01:30:41.498Z,12.74
2019-04-21T01:31:36.327Z,12.73
2019-04-21T01:32:42.706Z,12.70
2019-04-21T01:33:39.691Z,12.66
2019-04-21T01:34:39.309Z,12.67
2019-04-21T01:35:40.265Z,12.63
2019-04-21T01:36:37.045Z,12.66
2019-04-21T01:37:44.166Z,12.66
2019-04-21T01:38:45.330Z,12.61
2019-04-21T01:39:48.506Z,12.62
2019-04-21T01:40:41.014Z,12.59
2019-04-21T01:41:42.965Z,12.56
2019-04-21T01:42:41.138Z,12.58
2019-04-21T01:43:33.497Z,12.62
2019-04-21T01:44:41.866Z,12.59
2019-04-21T01:45:37.042Z,12.61
2019-04-21T01:46:36.364Z,12.61
2019-04-21T01:47:32.704Z,12.55
2019-04-21T01:48:34.467Z,12.56
2019-04-21T01:49:29.673Z,12.55
2019-04-21T01:50:36.605Z,12.55
2019-04-21T01:51:36.747Z,12.54
2019-04-21T01:52:46.203Z,12.55
2019-04-21T01:53:43.506Z,12.52
2019-04-21T01:54:40.434Z,12.51
2019-04-21T01:55:36.806Z,12.51
2019-04-21T01:56:35.651Z,12.52
2019-04-21T01:57:34.681Z,12.52
2019-04-21T01:58:29.480Z,12.52
2019-04-21T01:59:33.708Z,12.49
2019-04-21T02:00:32.807Z,12.49
2019-04-21T02:01:54.165Z,12.48
2019-04-21T02:02:36.379Z,12.48
2019-04-21T02:04:45.346Z,12.40
2019-04-21T02:05:43.947Z,12.43
2019-04-21T02:06:41.402Z,12.44
2019-04-21T02:07:39.877Z,12.46
2019-04-21T02:08:34.537Z,12.44
2019-04-21T02:09:38.414Z,12.43
2019-04-21T02:10:40.282Z,12.40
2019-04-21T02:11:48.618Z,12.40
2019-04-21T02:12:38.067Z,12.37
2019-04-21T02:13:35.508Z,12.34
2019-04-21T02:14:45.746Z,12.36
2019-04-21T02:15:42.317Z,12.36
2019-04-21T02:16:40.624Z,12.34
2019-04-21T02:17:34.173Z,12.31
2019-04-21T02:18:33.351Z,12.31
2019-04-21T02:19:32.597Z,12.29
2019-04-21T02:20:29.437Z,12.25
2019-04-21T02:21:31.839Z,12.22
2019-04-21T02:22:46.176Z,12.21
2019-04-21T02:24:42.498Z,12.16
2019-04-21T02:25:38.446Z,12.16
2019-04-21T02:26:42.898Z,12.19
2019-04-21T02:27:36.477Z,12.19
2019-04-21T02:28:42.821Z,12.15
2019-04-21T02:29:41.558Z,12.12
2019-04-21T02:31:45.332Z,12.05
2019-04-21T02:32:49.547Z,12.04
2019-04-21T02:33:57.489Z,12.01
2019-04-21T02:34:49.142Z,12.00
2019-04-21T02:36:15.567Z,12.00
2019-04-21T02:36:52.978Z,11.98
2019-04-21T02:37:54.876Z,11.98
2019-04-21T02:39:48.973Z,11.96
2019-04-21T02:41:51.208Z,11.93
2019-04-21T02:43:07.519Z,11.93
2019-04-21T02:43:52.456Z,11.88
2019-04-21T02:44:52.174Z,11.88
2019-04-21T02:45:47.115Z,11.87
2019-04-21T02:46:42.132Z,11.85
2019-04-21T02:48:11.196Z,11.85
2019-04-21T02:49:56.014Z,11.79
2019-04-21T02:53:03.571Z,11.77
2019-04-21T02:55:56.564Z,11.70
2019-04-21T02:56:59.107Z,11.69
2019-04-21T02:57:51.903Z,11.67
2019-04-21T02:58:57.006Z,11.70
2019-04-21T02:59:55.822Z,11.67
2019-04-21T03:00:44.447Z,11.70
2019-04-21T03:02:52.566Z,11.70
2019-04-21T03:03:49.186Z,11.70
2019-04-21T03:05:01.718Z,11.69
2019-04-21T03:06:59.935Z,11.69
2019-04-21T03:07:55.407Z,11.70
2019-04-21T03:08:56.687Z,11.70
2019-04-21T03:09:44.485Z,11.70
2019-04-21T03:11:52.311Z,11.70
2019-04-21T03:12:53.034Z,11.66
2019-04-21T03:13:46.979Z,11.66
2019-04-21T03:14:59.569Z,11.66
2019-04-21T03:15:53.221Z,11.66
2019-04-21T03:16:49.328Z,11.62
2019-04-21T03:17:49.928Z,11.62
2019-04-21T03:18:54.243Z,11.63
2019-04-21T03:19:59.869Z,11.62
2019-04-21T03:20:42.127Z,11.60
2019-04-21T03:21:48.347Z,11.62
2019-04-21T03:23:58.346Z,11.63
2019-04-21T03:25:20.483Z,11.60
2019-04-21T03:25:53.443Z,11.59
2019-04-21T03:31:11.532Z,11.64
2019-04-21T03:35:14.909Z,11.62
2019-04-21T03:36:30.018Z,11.60
2019-04-21T03:37:47.025Z,11.59
2019-04-21T03:38:40.500Z,11.59
2019-04-21T03:39:56.781Z,11.59
2019-04-21T03:40:39.399Z,11.60
2019-04-21T03:42:00.189Z,11.59
2019-04-21T03:44:08.023Z,11.59
2019-04-21T03:44:45.714Z,11.60
2019-04-21T03:45:42.298Z,11.57
2019-04-21T03:46:47.743Z,11.54
2019-04-21T03:47:43.479Z,11.56
2019-04-21T03:49:04.742Z,11.53
2019-04-21T03:50:47.263Z,11.54
2019-04-21T03:51:45.805Z,11.57
2019-04-21T03:55:01.565Z,11.56
2019-04-21T03:55:53.165Z,11.54
2019-04-21T03:57:06.032Z,11.53
2019-04-21T03:59:52.341Z,11.49
2019-04-21T04:01:50.643Z,11.53
2019-04-21T04:02:55.269Z,11.54
2019-04-21T04:04:44.910Z,11.49
2019-04-21T04:05:59.669Z,11.51
2019-04-21T04:08:57.533Z,11.53
2019-04-21T04:10:58.708Z,11.49
2019-04-21T04:11:58.449Z,11.48
2019-04-21T04:14:20.351Z,11.51
2019-04-21T04:14:44.186Z,11.54
2019-04-21T04:17:40.796Z,11.48
2019-04-21T04:20:48.059Z,11.45
2019-04-21T04:22:09.162Z,11.45
2019-04-21T04:22:49.681Z,11.44
2019-04-21T04:25:03.479Z,11.42
2019-04-21T04:25:53.657Z,11.38
2019-04-21T04:26:45.508Z,11.33
2019-04-21T04:28:02.147Z,11.33
2019-04-21T04:29:59.334Z,11.28
2019-04-21T04:30:45.959Z,11.24
2019-04-21T04:32:59.088Z,11.21
2019-04-21T04:34:09.875Z,11.21
2019-04-21T04:34:49.933Z,11.20
2019-04-21T04:36:58.447Z,11.21
2019-04-21T04:38:56.309Z,11.21
2019-04-21T04:39:48.494Z,11.19
2019-04-21T04:40:51.246Z,11.19
2019-04-21T04:41:56.830Z,11.19
2019-04-21T04:43:44.633Z,11.19
2019-04-21T04:45:48.201Z,11.19
2019-04-21T04:48:57.309Z,11.21
2019-04-21T04:50:50.057Z,11.21
2019-04-21T04:51:56.718Z,11.23
2019-04-21T04:53:43.951Z,11.24
2019-04-21T04:56:48.201Z,11.23
2019-04-21T04:57:55.029Z,11.21
2019-04-21T04:59:18.619Z,11.23
2019-04-21T05:00:52.130Z,11.23
2019-04-21T05:01:53.329Z,11.20
2019-04-21T05:02:40.307Z,11.21
2019-04-21T05:03:50.976Z,11.21
2019-04-21T05:05:48.816Z,11.23
2019-04-21T05:07:52.333Z,11.24
2019-04-21T05:09:47.105Z,11.28
2019-04-21T05:11:07.713Z,11.39
2019-04-21T05:12:48.130Z,11.51
2019-04-21T05:13:51.450Z,11.53
2019-04-21T05:14:46.162Z,11.59
2019-04-21T05:15:42.616Z,11.64
2019-04-21T05:17:43.290Z,11.79
2019-04-21T05:18:53.112Z,11.87
2019-04-21T05:20:03.547Z,12.03
2019-04-21T05:20:41.891Z,12.12
2019-04-21T05:21:59.532Z,12.19
2019-04-21T05:22:53.089Z,12.26
2019-04-21T05:23:38.359Z,12.41
2019-04-21T05:24:33.266Z,12.54
2019-04-21T05:25:27.768Z,12.73
2019-04-21T05:26:33.368Z,12.99
2019-04-21T05:27:32.085Z,13.14
2019-04-21T05:28:30.195Z,13.25
2019-04-21T05:29:36.388Z,13.53
2019-04-21T05:30:43.413Z,13.87
2019-04-21T05:31:43.056Z,14.35
2019-04-21T05:32:42.774Z,14.59
2019-04-21T05:33:38.398Z,14.72
2019-04-21T05:34:42.972Z,14.86
2019-04-21T05:35:32.188Z,15.20
2019-04-21T05:36:40.797Z,15.93
2019-04-21T05:37:39.798Z,16.59
2019-04-21T05:38:34.695Z,16.77
2019-04-21T05:39:33.645Z,17.18
2019-04-21T05:40:26.450Z,17.18
2019-04-21T05:41:26.557Z,17.14
2019-04-21T05:42:30.357Z,17.09
2019-04-21T05:43:39.117Z,17.28
2019-04-21T05:44:41.869Z,17.87
2019-04-21T05:45:53.041Z,18.41
2019-04-21T05:46:40.783Z,18.57
2019-04-21T05:47:41.646Z,18.49
2019-04-21T05:49:34.140Z,18.65
2019-04-21T05:50:35.047Z,17.83
2019-04-21T05:51:30.630Z,17.46
2019-04-21T05:52:26.450Z,17.65
2019-04-21T05:53:38.660Z,17.66
2019-04-21T05:54:45.651Z,17.74
2019-04-21T05:56:37.970Z,17.43
2019-04-21T05:57:33.459Z,17.91
2019-04-21T05:58:40.962Z,17.57
2019-04-21T05:59:40.364Z,17.32
2019-04-21T06:00:59.290Z,17.70
2019-04-21T06:01:37.729Z,18.47
2019-04-21T06:02:36.557Z,17.96
2019-04-21T06:05:02.072Z,18.09
2019-04-21T06:05:58.461Z,18.94
2019-04-21T06:06:39.203Z,19.25
2019-04-21T06:07:38.237Z,19.28
2019-04-21T06:08:38.972Z,19.35
2019-04-21T06:09:45.425Z,19.16
2019-04-21T06:10:41.934Z,19.01
2019-04-21T06:11:36.369Z,18.99
2019-04-21T06:12:44.904Z,18.99
2019-04-21T06:13:46.444Z,18.36
2019-04-21T06:14:36.723Z,18.65
2019-04-21T06:15:48.416Z,19.07
2019-04-21T06:16:43.604Z,19.21
2019-04-21T06:17:42.852Z,19.67
2019-04-21T06:18:44.940Z,20.27
2019-04-21T06:19:43.195Z,20.79
2019-04-21T06:20:38.843Z,21.73
2019-04-21T06:21:36.005Z,22.05
2019-04-21T06:22:36.111Z,21.63
2019-04-21T06:23:36.019Z,20.68
2019-04-21T06:24:42.249Z,19.83
2019-04-21T06:27:19.461Z,18.71
2019-04-21T06:27:55.713Z,18.62
2019-04-21T06:28:41.676Z,19.09
2019-04-21T06:29:36.192Z,19.86
2019-04-21T06:30:39.206Z,20.73
2019-04-21T06:32:07.956Z,20.85
2019-04-21T06:32:48.395Z,21.67
2019-04-21T06:33:41.232Z,21.61
2019-04-21T06:34:53.158Z,21.42
2019-04-21T06:35:48.465Z,21.64
2019-04-21T06:36:45.162Z,21.15
2019-04-21T06:37:43.278Z,21.00
2019-04-21T06:38:43.393Z,20.42
2019-04-21T06:40:43.869Z,19.95
2019-04-21T06:41:35.352Z,19.65
2019-04-21T06:42:43.221Z,19.50
2019-04-21T06:43:40.188Z,20.17
2019-04-21T06:44:46.224Z,20.46
2019-04-21T06:45:43.638Z,21.27
2019-04-21T06:48:40.861Z,19.79
2019-04-21T06:49:35.407Z,19.87
2019-04-21T06:50:40.058Z,20.05
2019-04-21T06:51:38.964Z,21.51
2019-04-21T06:53:48.670Z,20.41
2019-04-21T06:54:44.381Z,20.63
2019-04-21T06:55:34.089Z,19.98
2019-04-21T06:58:35.902Z,19.34
2019-04-21T06:59:34.111Z,19.21
2019-04-21T07:00:38.479Z,19.42
2019-04-21T07:02:42.273Z,20.72
2019-04-21T07:03:40.487Z,21.49
2019-04-21T07:04:39.529Z,20.33
2019-04-21T07:05:40.940Z,19.65
2019-04-21T07:06:45.608Z,20.97
2019-04-21T07:07:41.872Z,20.96
2019-04-21T07:08:44.661Z,21.19
2019-04-21T07:09:36.710Z,20.73
2019-04-21T07:10:35.136Z,20.07
2019-04-21T07:11:33.161Z,19.71
2019-04-21T07:12:34.308Z,19.31
2019-04-21T07:13:30.967Z,20.26
2019-04-21T07:14:37.987Z,19.85
2019-04-21T07:15:41.917Z,19.27
2019-04-21T07:16:41.535Z,19.35
2019-04-21T07:17:32.612Z,19.34
2019-04-21T07:18:41.526Z,19.87
2019-04-21T07:19:41.222Z,19.30
2019-04-21T07:20:36.606Z,18.96
2019-04-21T07:21:33.846Z,19.46
2019-04-21T07:22:37.633Z,19.39
2019-04-21T07:23:39.992Z,19.61
2019-04-21T07:24:41.728Z,19.40
2019-04-21T07:25:40.861Z,19.70
2019-04-21T07:26:38.661Z,19.32
2019-04-21T07:27:35.124Z,18.65
2019-04-21T07:28:39.870Z,18.71
2019-04-21T07:29:39.586Z,18.91
2019-04-21T07:30:51.813Z,19.38
2019-04-21T07:31:39.901Z,19.38
2019-04-21T07:32:33.680Z,19.86
2019-04-21T07:35:51.786Z,21.36
2019-04-21T07:36:46.440Z,21.51
2019-04-21T07:37:35.314Z,22.01
2019-04-21T07:38:34.558Z,21.58
2019-04-21T07:39:34.024Z,20.57
2019-04-21T07:40:31.519Z,20.41
2019-04-21T07:41:24.969Z,21.64
2019-04-21T07:42:31.027Z,22.26
2019-04-21T07:43:33.130Z,22.79
2019-04-21T07:44:30.239Z,23.23
2019-04-21T07:45:30.682Z,23.67
2019-04-21T07:46:26.365Z,24.27
2019-04-21T07:47:37.270Z,24.86
2019-04-21T07:48:32.251Z,24.05
2019-04-21T07:49:36.955Z,24.06
2019-04-21T07:50:31.788Z,24.16
2019-04-21T07:51:40.429Z,23.26
2019-04-21T07:52:39.579Z,22.66
2019-04-21T07:53:48.236Z,22.23
2019-04-21T07:54:41.459Z,22.01
2019-04-21T07:56:20.308Z,24.18
2019-04-21T07:57:35.229Z,25.29
2019-04-21T07:58:38.702Z,25.35
2019-04-21T07:59:47.993Z,25.60
2019-04-21T08:00:35.933Z,26.17
2019-04-21T08:01:35.505Z,26.47
2019-04-21T08:02:34.304Z,26.83
2019-04-21T08:03:33.645Z,25.76
2019-04-21T08:05:38.610Z,25.08
2019-04-21T08:06:33.895Z,25.26
2019-04-21T08:07:41.763Z,25.93
2019-04-21T08:08:34.250Z,26.27
2019-04-21T08:09:31.887Z,24.27
2019-04-21T08:10:36.300Z,23.07
2019-04-21T08:11:28.265Z,23.18
2019-04-21T08:12:30.594Z,24.18
2019-04-21T08:14:13.910Z,25.12
2019-04-21T08:14:38.460Z,25.29
2019-04-21T08:15:39.558Z,24.30
2019-04-21T08:16:31.846Z,23.59
2019-04-21T08:17:36.614Z,23.14
2019-04-21T08:18:33.239Z,23.63
2019-04-21T08:19:31.027Z,23.32
2019-04-21T08:20:29.128Z,22.67
2019-04-21T08:21:37.305Z,22.49
2019-04-21T08:22:32.076Z,22.21
2019-04-21T08:23:31.866Z,22.84
2019-04-21T08:24:34.911Z,23.89
2019-04-21T08:25:36.392Z,25.09
2019-04-21T08:26:35.942Z,25.20
2019-04-21T08:27:35.401Z,24.24
2019-04-21T08:28:31.982Z,24.15
2019-04-21T08:31:38.383Z,24.53
2019-04-21T08:32:44.326Z,25.42
2019-04-21T08:33:38.405Z,24.82
2019-04-21T08:34:35.441Z,24.87
2019-04-21T08:35:52.951Z,24.61
2019-04-21T08:36:44.870Z,24.27
2019-04-21T08:37:31.399Z,24.46
2019-04-21T08:38:35.833Z,24.61
2019-04-21T08:39:42.330Z,25.39
2019-04-21T08:40:36.677Z,26.16
2019-04-21T08:41:36.156Z,26.83
2019-04-21T08:42:30.563Z,27.12
2019-04-21T08:43:42.648Z,27.45
2019-04-21T08:44:45.216Z,27.50
2019-04-21T08:45:36.129Z,27.95
2019-04-21T08:46:31.128Z,28.05
2019-04-21T08:47:36.588Z,28.30
2019-04-21T08:48:37.676Z,28.33
2019-04-21T08:49:39.213Z,28.45
2019-04-21T08:50:31.342Z,28.52
2019-04-21T08:51:33.333Z,28.65
2019-04-21T08:52:49.052Z,28.36
2019-04-21T08:53:36.237Z,28.09
2019-04-21T08:54:38.368Z,28.13
2019-04-21T08:55:37.185Z,28.33
2019-04-21T08:56:34.563Z,28.36
2019-04-21T08:57:48.870Z,28.32
2019-04-21T08:58:35.669Z,28.69
2019-04-21T08:59:36.350Z,28.79
2019-04-21T09:00:36.832Z,28.25
2019-04-21T09:02:35.298Z,27.91
2019-04-21T09:03:33.020Z,27.01
2019-04-21T09:04:29.098Z,25.59
2019-04-21T09:05:34.294Z,24.31
2019-04-21T09:06:52.590Z,21.91
2019-04-21T09:07:41.697Z,19.67
2019-04-21T09:08:33.150Z,18.56
2019-04-21T09:09:36.071Z,18.51
2019-04-21T09:10:31.070Z,18.69
2019-04-21T09:11:29.499Z,18.75
2019-04-21T09:12:29.413Z,18.75
2019-04-21T09:13:32.130Z,18.32
2019-04-21T09:14:31.016Z,17.96
2019-04-21T09:15:32.084Z,17.89
2019-04-21T09:16:31.166Z,17.81
2019-04-21T09:17:26.290Z,17.94
2019-04-21T09:18:28.410Z,18.17
2019-04-21T09:19:40.104Z,18.25
2019-04-21T09:20:33.215Z,18.09
2019-04-21T09:21:31.344Z,17.76
2019-04-21T09:22:31.754Z,17.54
2019-04-21T09:23:36.458Z,17.47
2019-04-21T09:24:28.053Z,17.60
2019-04-21T09:25:38.632Z,17.70
2019-04-21T09:26:29.339Z,17.62
2019-04-21T09:27:27.391Z,17.62
2019-04-21T09:28:28.836Z,17.60
2019-04-21T09:29:21.760Z,17.28
2019-04-21T09:30:12.981Z,17.27
2019-04-21T09:31:12.232Z,17.35
2019-04-21T09:32:18.427Z,17.46
2019-04-21T09:33:12.394Z,17.45
2019-04-21T09:34:20.632Z,17.51
2019-04-21T09:35:14.808Z,17.49
2019-04-21T09:36:15.970Z,17.57
2019-04-21T09:37:24.405Z,17.65
2019-04-21T09:38:22.675Z,17.86
2019-04-21T09:39:16.543Z,17.86
2019-04-21T09:40:14.013Z,17.74
2019-04-21T09:41:16.128Z,17.89
2019-04-21T09:42:13.621Z,18.10
2019-04-21T09:43:13.453Z,18.14
2019-04-21T09:44:18.731Z,18.01
2019-04-21T09:45:13.873Z,17.92
2019-04-21T09:46:11.808Z,17.96
2019-04-21T09:47:12.588Z,18.07
2019-04-21T09:48:16.716Z,18.14
2019-04-21T09:49:16.519Z,18.07
2019-04-21T09:50:13.459Z,18.05
2019-04-21T09:51:11.205Z,18.01
2019-04-21T09:52:18.590Z,17.95
2019-04-21T09:53:20.434Z,17.89
2019-04-21T09:54:20.491Z,17.81
2019-04-21T09:55:17.111Z,17.87
2019-04-21T09:56:16.712Z,18.05
2019-04-21T09:57:24.304Z,18.23
2019-04-21T09:58:21.798Z,18.39
2019-04-21T09:59:20.662Z,18.51
2019-04-21T10:00:18.742Z,18.50
2019-04-21T10:01:20.588Z,18.32
2019-04-21T10:02:19.237Z,18.13
2019-04-21T10:03:15.728Z,17.94
2019-04-21T10:04:12.077Z,17.76
2019-04-21T10:05:12.294Z,17.68
2019-04-21T10:06:11.561Z,17.70
2019-04-21T10:07:23.597Z,17.80
2019-04-21T10:08:12.572Z,17.84
2019-04-21T10:09:14.419Z,18.04
2019-04-21T10:10:12.888Z,18.23
2019-04-21T10:11:11.886Z,18.31
2019-04-21T10:12:11.864Z,18.07
2019-04-21T10:13:10.932Z,17.89
2019-04-21T10:14:11.735Z,17.76
2019-04-21T10:15:10.964Z,17.79
2019-04-21T10:16:10.912Z,17.74
2019-04-21T10:17:11.027Z,17.81
2019-04-21T10:18:10.935Z,18.02
2019-04-21T10:19:11.219Z,18.10
2019-04-21T10:20:11.789Z,18.10
2019-04-21T10:21:10.858Z,18.20
2019-04-21T10:22:10.831Z,18.35
2019-04-21T10:23:11.390Z,18.51
2019-04-21T10:24:10.820Z,18.59
2019-04-21T10:25:10.809Z,18.56
2019-04-21T10:26:10.789Z,18.54
2019-04-21T10:27:12.888Z,18.54
2019-04-21T10:28:11.012Z,18.57
2019-04-21T10:29:17.001Z,18.65
2019-04-21T10:30:12.116Z,18.75
2019-04-21T10:31:11.021Z,18.82
2019-04-21T10:32:11.348Z,18.86
2019-04-21T10:33:10.717Z,18.90
2019-04-21T10:34:11.514Z,18.78
2019-04-21T10:35:10.996Z,18.59
2019-04-21T10:36:11.042Z,18.57
2019-04-21T10:37:11.214Z,18.56
2019-04-21T10:38:19.818Z,18.51
2019-04-21T10:39:11.722Z,18.39
2019-04-21T10:40:11.757Z,18.47
2019-04-21T10:41:11.738Z,18.46
2019-04-21T10:42:11.302Z,18.32
2019-04-21T10:43:13.462Z,18.39
2019-04-21T10:44:11.439Z,18.47
2019-04-21T10:45:10.888Z,18.60
2019-04-21T10:46:10.816Z,18.57
2019-04-21T10:47:10.962Z,18.51
2019-04-21T10:48:10.912Z,18.49
2019-04-21T10:49:10.831Z,18.59
2019-04-21T10:50:10.890Z,18.74
2019-04-21T10:51:10.765Z,18.82
2019-04-21T10:52:10.952Z,18.72
2019-04-21T10:53:11.142Z,18.51
2019-04-21T10:54:11.663Z,18.51
2019-04-21T10:55:30.973Z,18.34
2019-04-21T10:56:21.124Z,18.31
2019-04-21T10:57:12.500Z,18.41
2019-04-21T10:58:10.816Z,18.56
2019-04-21T10:59:10.429Z,18.54
2019-04-21T11:00:12.045Z,18.42
2019-04-21T11:01:10.706Z,18.44
2019-04-21T11:02:10.636Z,18.34
2019-04-21T11:03:10.901Z,18.34
2019-04-21T11:04:17.015Z,18.46
2019-04-21T11:05:12.500Z,18.54
2019-04-21T11:06:10.639Z,18.47
2019-04-21T11:07:14.534Z,18.60
2019-04-21T11:08:22.616Z,18.78
2019-04-21T11:09:11.325Z,18.90
2019-04-21T11:10:11.633Z,19.01
2019-04-21T11:11:10.315Z,19.15
2019-04-21T11:12:10.338Z,19.27
2019-04-21T11:13:10.428Z,19.32
2019-04-21T11:14:10.590Z,19.35
2019-04-21T11:15:11.444Z,19.43
2019-04-21T11:16:10.964Z,19.40
2019-04-21T11:17:10.273Z,19.43
2019-04-21T11:18:10.299Z,19.47
2019-04-21T11:19:11.631Z,19.50
2019-04-21T11:20:10.835Z,19.49
2019-04-21T11:21:11.198Z,19.50
2019-04-21T11:22:10.467Z,19.46
2019-04-21T11:23:10.223Z,19.47
2019-04-21T11:24:10.327Z,19.52
2019-04-21T11:25:11.192Z,19.50
2019-04-21T11:26:10.160Z,19.53
2019-04-21T11:27:10.932Z,19.55
2019-04-21T11:28:11.164Z,19.42
2019-04-21T11:29:10.809Z,19.39
2019-04-21T11:30:11.655Z,19.34
2019-04-21T11:31:11.105Z,19.40
2019-04-21T11:32:10.098Z,19.52
2019-04-21T11:33:11.244Z,19.47
2019-04-21T11:34:11.214Z,19.50
2019-04-21T11:35:10.047Z,19.47
2019-04-21T11:36:11.164Z,19.53
2019-04-21T11:37:10.290Z,19.62
2019-04-21T11:38:16.945Z,19.68
2019-04-21T11:39:23.597Z,19.75
2019-04-21T11:40:14.964Z,19.70
2019-04-21T11:41:11.950Z,19.79
2019-04-21T11:42:10.113Z,19.86
2019-04-21T11:43:09.965Z,19.89
2019-04-21T11:44:09.955Z,19.90
2019-04-21T11:45:10.510Z,19.95
2019-04-21T11:46:10.827Z,19.94
2019-04-21T11:47:10.265Z,19.89
2019-04-21T11:48:10.469Z,19.89
2019-04-21T11:49:10.386Z,19.87
2019-04-21T11:50:10.887Z,19.94
2019-04-21T11:51:11.028Z,19.97
2019-04-21T11:52:11.223Z,19.97
2019-04-21T11:53:10.650Z,20.00
2019-04-21T11:54:10.843Z,20.05
2019-04-21T11:55:11.010Z,20.12
2019-04-21T11:56:09.831Z,20.12
2019-04-21T11:57:16.050Z,20.16
2019-04-21T11:58:11.902Z,19.94
2019-04-21T11:59:10.062Z,19.90
2019-04-21T12:00:09.790Z,19.89
2019-04-21T12:01:09.771Z,19.83
2019-04-21T12:02:09.824Z,19.78
2019-04-21T12:03:12.395Z,19.72
2019-04-21T12:04:11.735Z,19.76
2019-04-21T12:05:09.787Z,19.86
2019-04-21T12:06:11.060Z,19.89
2019-04-21T12:07:09.718Z,19.94
2019-04-21T12:08:21.198Z,20.02
2019-04-21T12:09:11.764Z,20.08
2019-04-21T12:10:09.677Z,20.04
2019-04-21T12:11:09.695Z,19.97
2019-04-21T12:12:09.660Z,19.90
2019-04-21T12:13:10.080Z,19.82
2019-04-21T12:14:09.980Z,19.78
2019-04-21T12:15:11.237Z,19.86
2019-04-21T12:16:10.660Z,19.95
2019-04-21T12:17:10.038Z,20.02
2019-04-21T12:18:10.044Z,20.13
2019-04-21T12:19:09.597Z,20.20
2019-04-21T12:20:10.637Z,20.26
2019-04-21T12:21:09.562Z,20.27
2019-04-21T12:22:18.213Z,20.25
2019-04-21T12:23:10.537Z,20.22
2019-04-21T12:24:09.545Z,20.30
2019-04-21T12:25:09.526Z,20.35
2019-04-21T12:26:09.513Z,20.42
2019-04-21T12:27:09.821Z,20.50
2019-04-21T12:28:10.030Z,20.40
2019-04-21T12:29:10.067Z,20.40
2019-04-21T12:30:09.584Z,20.44
2019-04-21T12:31:09.685Z,20.46
2019-04-21T12:32:09.763Z,20.53
2019-04-21T12:33:09.876Z,20.57
2019-04-21T12:34:09.866Z,20.60
2019-04-21T12:35:10.071Z,20.63
2019-04-21T12:36:09.536Z,20.69
2019-04-21T12:37:10.668Z,20.73
2019-04-21T12:38:09.378Z,20.73
2019-04-21T12:39:10.702Z,20.60
2019-04-21T12:40:10.512Z,20.58
2019-04-21T12:41:10.676Z,20.63
2019-04-21T12:42:09.346Z,20.71
2019-04-21T12:43:10.480Z,20.83
2019-04-21T12:44:10.724Z,20.91
2019-04-21T12:45:09.786Z,20.96
2019-04-21T12:46:09.724Z,20.93
2019-04-21T12:47:10.066Z,20.93
2019-04-21T12:48:10.452Z,20.82
2019-04-21T12:49:09.775Z,20.82
2019-04-21T12:50:09.253Z,20.81
2019-04-21T12:51:10.141Z,20.85
2019-04-21T12:52:09.418Z,20.90
2019-04-21T12:53:09.538Z,20.91
2019-04-21T12:54:09.849Z,20.87
2019-04-21T12:55:09.503Z,20.79
2019-04-21T12:56:09.492Z,20.85
2019-04-21T12:57:09.658Z,20.87
2019-04-21T12:58:09.167Z,20.93
2019-04-21T12:59:10.017Z,20.93
2019-04-21T13:00:09.156Z,20.90
2019-04-21T13:01:09.366Z,20.91
2019-04-21T13:02:09.590Z,20.96
2019-04-21T13:03:09.912Z,20.98
2019-04-21T13:04:10.132Z,21.00
2019-04-21T13:05:09.506Z,21.06
2019-04-21T13:06:09.968Z,21.13
2019-04-21T13:07:09.821Z,21.19
2019-04-21T13:08:09.302Z,21.22
2019-04-21T13:09:12.362Z,21.24
2019-04-21T13:10:10.507Z,21.22
2019-04-21T13:11:09.556Z,21.21
2019-04-21T13:12:09.048Z,21.19
2019-04-21T13:13:10.061Z,21.22
2019-04-21T13:14:08.980Z,21.16
2019-04-21T13:15:08.978Z,21.19
2019-04-21T13:16:09.652Z,21.15
2019-04-21T13:17:09.847Z,21.12
2019-04-21T13:18:10.095Z,21.12
2019-04-21T13:19:09.339Z,21.09
2019-04-21T13:20:09.547Z,21.12
2019-04-21T13:21:09.910Z,21.13
2019-04-21T13:22:09.904Z,21.05
2019-04-21T13:23:10.066Z,20.97
2019-04-21T13:24:08.895Z,20.82
2019-04-21T13:25:09.734Z,20.78
2019-04-21T13:26:09.747Z,20.78
2019-04-21T13:27:09.455Z,20.83
2019-04-21T13:28:08.845Z,20.90
2019-04-21T13:29:10.147Z,20.98
2019-04-21T13:30:08.831Z,20.97
2019-04-21T13:31:08.815Z,20.94
2019-04-21T13:32:09.361Z,20.98
2019-04-21T13:33:09.203Z,21.00
2019-04-21T13:34:10.288Z,21.05
2019-04-21T13:35:10.719Z,21.03
2019-04-21T13:36:09.684Z,21.08
2019-04-21T13:37:09.734Z,21.05
2019-04-21T13:38:19.866Z,21.09
2019-04-21T13:39:38.250Z,21.12
2019-04-21T13:40:29.201Z,21.18
2019-04-21T13:41:23.176Z,21.24
2019-04-21T13:42:19.692Z,21.30
2019-04-21T13:43:10.686Z,21.16
2019-04-21T13:44:08.960Z,21.15
2019-04-21T13:45:10.200Z,21.15
2019-04-21T13:46:09.885Z,21.13
2019-04-21T13:47:08.639Z,21.09
2019-04-21T13:48:08.629Z,21.12
2019-04-21T13:49:09.493Z,21.16
2019-04-21T13:50:08.880Z,21.16
2019-04-21T13:51:09.135Z,21.18
2019-04-21T13:52:08.912Z,21.19
2019-04-21T13:53:09.033Z,21.21
2019-04-21T13:54:09.615Z,21.22
2019-04-21T13:55:09.602Z,21.13
2019-04-21T13:56:08.893Z,21.11
2019-04-21T13:57:08.564Z,21.13
2019-04-21T13:58:08.649Z,21.13
2019-04-21T13:59:08.549Z,21.13
2019-04-21T14:00:08.976Z,21.18
2019-04-21T14:01:09.625Z,20.98
2019-04-21T14:02:08.937Z,20.94
2019-04-21T14:03:08.475Z,21.01
2019-04-21T14:04:09.529Z,21.06
2019-04-21T14:05:10.435Z,21.12
2019-04-21T14:06:08.603Z,21.19
2019-04-21T14:07:08.433Z,21.27
2019-04-21T14:08:09.296Z,21.28